Time;durP1;ratioP1;P1;durP2;ratioP2;P2;SDS_P1;SDS_P2;PMS_P1;PMS_P2;Temp;Humidity;BMP_temperature;BMP_pressure;BME280_temperature;BME280_humidity;BME280_pressure;Samples;Min_cycle;Max_cycle;Signal;HPM_P1;HPM_P2
2023/06/26 00:01:20;;;;;;;22.85;9.73;;;;;;;22.79;77.21;99574.56;5110140;28;19973;-19
2023/06/26 00:03:49;;;;;;;21.58;8.73;;;;;;;22.86;75.42;99572.22;5109790;28;20031;-19
2023/06/26 00:06:14;;;;;;;16.08;7.70;;;;;;;22.78;75.99;99569.44;5109512;28;20108;-19
2023/06/26 00:08:40;;;;;;;20.15;9.25;;;;;;;22.71;76.29;99564.47;5109925;28;20073;-18
2023/06/26 00:11:05;;;;;;;29.38;14.10;;;;;;;22.78;75.47;99564.84;5109531;28;20100;-18
2023/06/26 00:13:31;;;;;;;21.92;9.32;;;;;;;22.68;75.62;99562.38;5109773;28;20032;-19
2023/06/26 00:15:56;;;;;;;12.25;4.78;;;;;;;22.66;76.09;99567.31;5109566;28;20046;-19
2023/06/26 00:18:23;;;;;;;8.80;3.65;;;;;;;22.75;75.58;99560.00;5109484;28;20089;-18
2023/06/26 00:20:48;;;;;;;10.35;4.32;;;;;;;22.86;75.16;99558.63;5109167;28;20119;-18
2023/06/26 00:23:16;;;;;;;9.52;3.25;;;;;;;22.69;75.55;99561.25;5109492;28;20102;-18
2023/06/26 00:25:42;;;;;;;6.15;3.03;;;;;;;22.90;75.28;99558.00;5109592;28;20059;-18
2023/06/26 00:28:08;;;;;;;5.30;2.70;;;;;;;22.93;74.29;99560.09;5109357;28;20040;-18
2023/06/26 00:30:34;;;;;;;4.93;2.65;;;;;;;23.02;74.09;99569.91;5109202;28;20027;-25
2023/06/26 00:32:59;;;;;;;5.97;3.08;;;;;;;22.95;74.79;99568.75;5109162;28;20110;-19
2023/06/26 00:35:24;;;;;;;6.50;3.03;;;;;;;23.04;74.74;99562.22;5109331;28;20383;-19
2023/06/26 00:37:50;;;;;;;6.25;2.90;;;;;;;23.01;74.98;99559.34;5109154;28;20016;-18
2023/06/26 00:40:16;;;;;;;7.95;3.20;;;;;;;22.98;75.44;99554.50;5109147;28;20088;-18
2023/06/26 00:42:42;;;;;;;8.38;3.95;;;;;;;22.96;75.06;99556.75;5108871;28;20127;-18
2023/06/26 00:45:07;;;;;;;6.63;3.25;;;;;;;22.94;74.99;99567.91;5109040;28;20127;-18
2023/06/26 00:47:33;;;;;;;8.75;4.07;;;;;;;22.99;74.79;99561.56;5108600;28;20058;-18
2023/06/26 00:49:59;;;;;;;7.63;4.15;;;;;;;23.02;75.17;99552.78;5108755;28;20055;-18
2023/06/26 00:52:24;;;;;;;10.95;4.32;;;;;;;22.72;76.51;99549.78;5109037;28;20107;-18
2023/06/26 00:54:51;;;;;;;9.00;4.10;;;;;;;22.71;77.33;99558.22;5108575;28;20028;-19
2023/06/26 00:57:18;;;;;;;13.02;4.53;;;;;;;22.55;78.01;99541.53;5108843;28;20035;-18
2023/06/26 00:59:43;;;;;;;6.63;3.40;;;;;;;22.59;77.81;99539.78;5108706;28;20019;-20
2023/06/26 01:02:09;;;;;;;9.23;3.92;;;;;;;22.72;77.81;99554.38;5108867;28;20042;-19
2023/06/26 01:04:36;;;;;;;7.38;3.95;;;;;;;22.71;77.46;99553.59;5108672;28;20035;-19
2023/06/26 01:07:03;;;;;;;6.70;3.47;;;;;;;22.48;79.00;99543.88;5107917;28;20036;-19
2023/06/26 01:09:29;;;;;;;7.22;3.20;;;;;;;22.43;78.72;99547.50;5108271;28;20024;-18
2023/06/26 01:11:55;;;;;;;7.88;3.10;;;;;;;22.53;78.74;99546.47;5108624;28;20069;-19
2023/06/26 01:14:20;;;;;;;7.45;3.60;;;;;;;22.59;78.13;99539.78;5108370;28;20446;-19
2023/06/26 01:16:49;;;;;;;5.63;3.38;;;;;;;22.59;78.40;99550.66;5108519;28;20038;-19
2023/06/26 01:19:24;;;;;;;9.85;3.70;;;;;;;22.50;78.49;99541.66;5108358;28;20023;-17
2023/06/26 01:21:54;;;;;;;9.30;4.13;;;;;;;22.54;78.54;99545.38;5108365;28;20092;-18
2023/06/26 01:24:21;;;;;;;7.50;3.47;;;;;;;22.52;79.07;99551.09;5108242;28;20093;-19
2023/06/26 01:26:51;;;;;;;7.07;4.07;;;;;;;22.51;78.96;99548.69;5108219;28;20031;-18
2023/06/26 01:29:18;;;;;;;9.07;4.25;;;;;;;22.32;79.73;99536.13;5107971;28;20081;-18
2023/06/26 01:31:46;;;;;;;7.80;3.80;;;;;;;22.17;80.68;99544.59;5108240;28;20023;-19
2023/06/26 01:34:12;;;;;;;9.05;4.70;;;;;;;22.23;79.92;99537.94;5108295;28;20070;-21
2023/06/26 01:36:38;;;;;;;11.15;4.70;;;;;;;22.26;80.15;99540.88;5108456;28;20153;-19
2023/06/26 01:39:03;;;;;;;9.48;4.45;;;;;;;22.25;80.47;99539.28;5108142;28;20043;-21
2023/06/26 01:41:29;;;;;;;10.15;5.32;;;;;;;22.21;80.78;99534.72;5107823;28;20024;-18
2023/06/26 01:44:16;;;;;;;9.30;4.85;;;;;;;21.92;81.47;99518.88;5107864;28;20040;-20
2023/06/26 01:46:59;;;;;;;12.98;5.03;;;;;;;22.11;80.65;99540.41;5107887;28;20047;-23
2023/06/26 01:49:39;;;;;;;10.85;5.05;;;;;;;22.17;80.88;99539.16;5107784;28;20537;-18
2023/06/26 01:52:30;;;;;;;8.48;4.18;;;;;;;22.07;81.10;99546.47;5107639;28;20058;-19
2023/06/26 01:55:17;;;;;;;6.65;3.08;;;;;;;22.11;80.53;99540.41;5107744;28;20096;-18
2023/06/26 01:57:45;;;;;;;7.97;3.58;;;;;;;21.78;82.64;99546.03;5107755;28;20413;-24
2023/06/26 02:00:12;;;;;;;9.15;3.85;;;;;;;21.82;82.50;99544.31;5107556;28;20039;-18
2023/06/26 02:02:40;;;;;;;7.85;3.50;;;;;;;21.82;82.11;99542.44;5107728;28;20030;-19
2023/06/26 02:05:06;;;;;;;6.38;3.60;;;;;;;21.97;81.70;99546.69;5107739;28;20039;-18
2023/06/26 02:07:32;;;;;;;9.10;4.20;;;;;;;21.84;82.79;99542.94;5107315;28;20809;-18
2023/06/26 02:09:57;;;;;;;15.55;6.55;;;;;;;22.03;81.92;99550.09;5107209;28;20391;-18
2023/06/26 02:12:22;;;;;;;11.52;5.22;;;;;;;21.95;82.06;99559.78;5107148;28;20477;-17
2023/06/26 02:14:51;;;;;;;9.02;4.32;;;;;;;21.66;83.32;99552.81;5107167;28;20823;-19
2023/06/26 02:17:16;;;;;;;6.90;3.67;;;;;;;21.52;84.24;99552.06;5106070;28;20088;-18
2023/06/26 02:19:47;;;;;;;8.75;4.00;;;;;;;21.74;82.74;99555.91;5107365;28;20031;-18
2023/06/26 02:22:16;;;;;;;7.70;3.83;;;;;;;21.91;81.54;99552.56;5107096;28;20034;-20
2023/06/26 02:24:43;;;;;;;9.15;4.40;;;;;;;21.75;82.52;99560.25;5107070;28;20012;-19
2023/06/26 02:27:08;;;;;;;11.68;4.22;;;;;;;21.77;82.55;99558.03;5107018;28;20023;-18
2023/06/26 02:29:34;;;;;;;10.63;3.53;;;;;;;21.59;83.45;99552.44;5106794;28;20023;-18
2023/06/26 02:31:59;;;;;;;13.10;3.80;;;;;;;21.52;85.05;99557.47;5106700;28;20030;-18
2023/06/26 02:34:25;;;;;;;7.18;3.45;;;;;;;21.57;84.41;99567.41;5106780;28;20163;-18
2023/06/26 02:36:50;;;;;;;7.88;4.07;;;;;;;21.80;83.11;99557.41;5106624;28;20036;-19
2023/06/26 02:39:16;;;;;;;6.85;3.63;;;;;;;21.77;82.81;99549.88;5106715;28;20027;-19
2023/06/26 02:41:41;;;;;;;6.55;3.45;;;;;;;21.48;85.22;99550.25;5106726;28;20637;-18
2023/06/26 02:44:07;;;;;;;6.90;4.05;;;;;;;21.81;83.62;99559.03;5106605;28;20031;-19
2023/06/26 02:46:33;;;;;;;8.80;4.30;;;;;;;21.75;83.70;99546.69;5106397;28;20047;-19
2023/06/26 02:48:59;;;;;;;9.32;5.68;;;;;;;21.59;84.72;99557.06;5106429;28;20040;-19
2023/06/26 02:51:24;;;;;;;13.05;6.05;;;;;;;21.56;84.76;99555.75;5106509;28;20037;-18
2023/06/26 02:53:50;;;;;;;15.55;7.47;;;;;;;21.57;84.50;99556.56;5106307;28;20055;-19
2023/06/26 02:56:15;;;;;;;14.27;7.50;;;;;;;21.54;85.47;99547.13;5106607;28;20020;-19
2023/06/26 02:58:40;;;;;;;13.82;7.13;;;;;;;21.59;84.19;99549.72;5106482;28;20470;-18
2023/06/26 03:01:06;;;;;;;13.52;6.13;;;;;;;21.47;85.63;99546.72;5106168;28;20031;-18
2023/06/26 03:03:40;;;;;;;16.80;6.63;;;;;;;21.45;85.77;99548.94;5106407;28;20028;-18
2023/06/26 03:06:08;;;;;;;14.80;6.60;;;;;;;21.40;87.08;99543.59;5106313;28;20019;-18
2023/06/26 03:08:37;;;;;;;12.60;6.43;;;;;;;21.26;86.83;99543.59;5105898;28;20032;-18
2023/06/26 03:11:03;;;;;;;15.10;6.25;;;;;;;21.53;86.39;99550.94;5106110;28;20057;-19
2023/06/26 03:13:28;;;;;;;14.20;5.35;;;;;;;21.34;87.69;99550.25;5105812;28;20135;-18
2023/06/26 03:15:53;;;;;;;9.73;5.18;;;;;;;21.30;89.18;99557.38;5106081;28;20403;-20
2023/06/26 03:18:19;;;;;;;10.82;5.78;;;;;;;21.54;87.37;99555.25;5105952;28;20059;-18
2023/06/26 03:20:45;;;;;;;10.73;6.50;;;;;;;21.79;85.71;99556.59;5105984;28;20059;-23
2023/06/26 03:23:10;;;;;;;14.55;7.80;;;;;;;21.75;86.29;99554.81;5106124;28;20019;-18
2023/06/26 03:25:36;;;;;;;22.30;11.82;;;;;;;21.67;85.98;99549.00;5105970;28;20034;-18
2023/06/26 03:28:01;;;;;;;18.92;9.48;;;;;;;21.85;85.13;99558.09;5105814;28;20024;-18
2023/06/26 03:30:27;;;;;;;19.30;9.98;;;;;;;21.94;84.32;99552.72;5105632;28;20028;-18
2023/06/26 03:32:52;;;;;;;22.00;10.57;;;;;;;21.86;84.94;99561.59;5105748;28;20080;-18
2023/06/26 03:35:18;;;;;;;19.00;9.98;;;;;;;22.03;84.71;99566.41;5105886;28;20020;-19
2023/06/26 03:37:43;;;;;;;18.48;9.98;;;;;;;22.08;84.58;99568.97;5105909;28;20414;-19
2023/06/26 03:40:09;;;;;;;24.50;8.70;;;;;;;22.22;83.63;99568.94;5105266;28;20410;-18
2023/06/26 03:42:35;;;;;;;25.00;7.18;;;;;;;22.09;83.47;99567.88;5105395;28;20854;-18
2023/06/26 03:45:00;;;;;;;11.00;5.57;;;;;;;21.96;84.37;99555.16;5105414;28;20045;-18
2023/06/26 03:47:26;;;;;;;10.95;6.00;;;;;;;21.83;84.97;99562.22;5105459;28;20012;-19
2023/06/26 03:49:51;;;;;;;16.70;7.80;;;;;;;22.01;84.10;99563.97;5106001;28;20024;-18
2023/06/26 03:52:16;;;;;;;37.92;16.75;;;;;;;21.94;85.14;99549.22;5105702;28;20034;-22
2023/06/26 03:54:42;;;;;;;34.30;17.58;;;;;;;21.94;85.25;99551.94;5105784;28;20020;-18
2023/06/26 03:57:07;;;;;;;33.55;16.83;;;;;;;22.01;85.50;99563.19;5105501;28;20418;-18
2023/06/26 03:59:33;;;;;;;27.30;13.57;;;;;;;22.01;85.82;99558.56;5105680;28;20050;-18
2023/06/26 04:01:58;;;;;;;19.52;10.75;;;;;;;21.95;86.72;99556.28;5105593;28;20697;-18
2023/06/26 04:04:24;;;;;;;16.60;9.68;;;;;;;22.03;85.88;99556.34;5105182;28;20446;-18
2023/06/26 04:06:49;;;;;;;17.33;9.38;;;;;;;22.07;86.15;99551.88;5105401;28;20120;-18
2023/06/26 04:09:14;;;;;;;13.55;7.25;;;;;;;22.33;85.36;99558.63;5105430;28;20082;-18
2023/06/26 04:11:40;;;;;;;15.60;7.93;;;;;;;22.21;86.10;99551.00;5105243;28;20012;-19
2023/06/26 04:14:05;;;;;;;13.18;7.53;;;;;;;22.30;85.14;99554.63;5105472;28;20039;-19
2023/06/26 04:16:31;;;;;;;14.20;7.03;;;;;;;22.39;84.67;99557.41;5105450;28;20068;-18
2023/06/26 04:18:56;;;;;;;12.40;7.38;;;;;;;22.53;83.85;99551.91;5105603;28;20076;-18
2023/06/26 04:21:24;;;;;;;15.82;8.40;;;;;;;22.65;83.44;99557.56;5105288;28;20032;-19
2023/06/26 04:23:50;;;;;;;18.67;8.38;;;;;;;22.66;83.72;99554.53;5105359;28;20055;-20
2023/06/26 04:26:15;;;;;;;15.82;7.20;;;;;;;22.64;82.62;99547.81;5105548;28;20107;-21
2023/06/26 04:28:41;;;;;;;13.55;7.18;;;;;;;22.59;82.86;99547.94;5105244;28;20069;-18
2023/06/26 04:31:07;;;;;;;12.95;7.30;;;;;;;22.55;82.89;99553.19;5105577;28;20552;-18
2023/06/26 04:33:32;;;;;;;12.10;6.65;;;;;;;22.38;85.03;99556.59;5105097;28;20592;-18
2023/06/26 04:35:59;;;;;;;20.50;8.25;;;;;;;22.38;85.03;99553.88;5105417;28;20019;-18
2023/06/26 04:38:27;;;;;;;14.25;7.15;;;;;;;22.56;84.66;99556.72;5105136;28;20103;-18
2023/06/26 04:40:52;;;;;;;12.35;7.22;;;;;;;22.54;84.65;99554.31;5105998;28;20074;-19
2023/06/26 04:43:17;;;;;;;13.65;8.05;;;;;;;22.54;84.31;99558.94;5108966;28;20486;-19
2023/06/26 04:45:43;;;;;;;15.43;7.68;;;;;;;22.65;83.66;99571.94;5108809;28;20031;-18
2023/06/26 04:48:09;;;;;;;16.35;7.00;;;;;;;22.64;84.41;99569.56;5108703;28;20040;-18
2023/06/26 04:50:35;;;;;;;17.65;7.43;;;;;;;22.65;84.33;99571.16;5108752;28;20032;-20
2023/06/26 04:53:02;;;;;;;16.52;7.60;;;;;;;22.68;83.57;99573.25;5108651;28;20026;-19
2023/06/26 04:55:28;;;;;;;15.40;7.40;;;;;;;22.86;83.87;99574.94;5108420;28;20032;-17
2023/06/26 04:57:53;;;;;;;16.15;8.77;;;;;;;22.98;82.25;99578.97;5108667;28;20115;-18
2023/06/26 05:00:19;;;;;;;16.05;8.38;;;;;;;23.17;80.84;99579.59;5108542;28;20020;-23
2023/06/26 05:02:44;;;;;;;14.73;9.10;;;;;;;23.23;81.05;99575.59;5108659;28;20031;-19
2023/06/26 05:05:11;;;;;;;16.42;9.57;;;;;;;23.34;79.88;99591.63;5108708;28;20019;-18
2023/06/26 05:07:38;;;;;;;14.77;9.02;;;;;;;23.19;80.37;99601.81;5108414;28;20027;-18
2023/06/26 05:10:04;;;;;;;17.95;9.80;;;;;;;23.19;80.19;99601.81;5108361;28;20028;-19
2023/06/26 05:12:29;;;;;;;15.13;9.27;;;;;;;23.18;81.07;99594.75;5108281;28;20023;-18
2023/06/26 05:14:55;;;;;;;17.35;10.20;;;;;;;23.19;81.20;99596.38;5108358;28;20031;-19
2023/06/26 05:17:20;;;;;;;19.05;10.20;;;;;;;23.15;81.73;99595.41;5108417;28;20024;-20
2023/06/26 05:19:46;;;;;;;14.60;9.40;;;;;;;23.32;80.62;99596.59;5108295;28;20115;-18
2023/06/26 05:22:13;;;;;;;15.18;9.80;;;;;;;23.41;79.78;99600.13;5108204;28;20029;-18
2023/06/26 05:24:39;;;;;;;16.17;10.07;;;;;;;23.47;79.34;99599.66;5108065;28;20395;-19
2023/06/26 05:27:05;;;;;;;18.65;10.80;;;;;;;23.57;78.87;99589.59;5108032;28;20791;-18
2023/06/26 05:29:32;;;;;;;19.88;11.50;;;;;;;23.56;78.19;99599.69;5108094;28;20122;-18
2023/06/26 05:31:58;;;;;;;17.10;11.10;;;;;;;23.57;79.52;99598.56;5107894;28;20122;-18
2023/06/26 05:34:24;;;;;;;18.70;11.32;;;;;;;23.69;76.71;99597.16;5108104;28;20114;-18
2023/06/26 05:36:57;;;;;;;20.00;10.82;;;;;;;23.71;76.23;99590.25;5108217;28;20537;-20
2023/06/26 05:39:22;;;;;;;15.63;10.57;;;;;;;23.66;77.19;99602.13;5107971;28;20063;-20
2023/06/26 05:41:48;;;;;;;16.05;11.18;;;;;;;23.83;77.83;99608.72;5107570;28;20031;-17
2023/06/26 05:44:13;;;;;;;16.13;10.02;;;;;;;23.88;77.17;99605.84;5107983;28;20092;-20
2023/06/26 05:46:39;;;;;;;16.67;10.80;;;;;;;24.02;77.34;99611.16;5107892;28;20513;-18
2023/06/26 05:49:04;;;;;;;15.15;10.80;;;;;;;24.13;75.85;99609.72;5107504;28;20073;-18
2023/06/26 05:51:30;;;;;;;17.02;10.48;;;;;;;24.19;74.95;99616.59;5107463;28;20031;-19
2023/06/26 05:53:56;;;;;;;16.20;10.07;;;;;;;24.43;73.22;99616.09;5107454;28;20116;-20
2023/06/26 05:56:21;;;;;;;15.57;9.68;;;;;;;24.53;72.78;99608.75;5107801;28;20035;-19
2023/06/26 05:58:47;;;;;;;18.55;10.30;;;;;;;24.49;72.92;99599.59;5107673;28;20024;-18
2023/06/26 06:01:13;;;;;;;19.00;10.68;;;;;;;24.72;72.40;99617.34;5107580;28;20032;-18
2023/06/26 06:03:40;;;;;;;12.70;9.32;;;;;;;24.79;70.84;99620.41;5107457;28;20020;-18
2023/06/26 06:06:05;;;;;;;13.20;8.50;;;;;;;24.84;70.14;99622.94;5107327;28;20042;-18
2023/06/26 06:08:31;;;;;;;13.07;8.82;;;;;;;24.92;70.90;99628.69;5107350;28;20024;-18
2023/06/26 06:10:57;;;;;;;13.00;8.45;;;;;;;24.97;70.01;99634.00;5106589;28;20027;-19
2023/06/26 06:13:22;;;;;;;12.85;7.38;;;;;;;24.92;68.74;99636.88;5107233;28;20051;-18
2023/06/26 06:15:48;;;;;;;17.80;10.63;;;;;;;24.79;68.50;99642.22;5107314;28;20430;-19
2023/06/26 06:18:13;;;;;;;13.25;7.95;;;;;;;24.82;69.34;99632.56;5107228;28;20420;-19
2023/06/26 06:20:38;;;;;;;15.95;7.93;;;;;;;24.89;69.52;99640.25;5106794;28;20419;-19
2023/06/26 06:23:04;;;;;;;14.65;9.10;;;;;;;24.84;68.74;99631.13;5106720;28;20126;-18
2023/06/26 06:25:29;;;;;;;14.65;8.73;;;;;;;24.75;68.02;99632.28;5107576;28;20023;-18
2023/06/26 06:27:55;;;;;;;11.60;7.45;;;;;;;24.82;66.36;99632.56;5107515;28;20115;-18
2023/06/26 06:30:20;;;;;;;11.93;6.88;;;;;;;24.83;66.36;99645.88;5107778;28;20030;-24
2023/06/26 06:32:50;;;;;;;12.77;6.65;;;;;;;25.02;65.27;99633.81;5108192;28;20057;-19
2023/06/26 06:35:16;;;;;;;11.30;6.38;;;;;;;24.99;65.90;99638.00;5107982;28;20023;-18
2023/06/26 06:37:42;;;;;;;12.32;8.02;;;;;;;25.17;65.50;99638.75;5107578;28;20036;-18
2023/06/26 06:40:09;;;;;;;9.93;6.70;;;;;;;25.30;65.12;99636.94;5107881;28;20026;-18
2023/06/26 06:42:36;;;;;;;10.27;6.32;;;;;;;25.21;64.03;99642.44;5107708;28;20127;-18
2023/06/26 06:45:02;;;;;;;;;;;;;;;25.30;65.23;99638.88;5108153;28;20031;-18
2023/06/26 06:47:28;;;;;;;14.23;7.38;;;;;;;25.63;65.58;99647.22;5107401;28;19907;-18
2023/06/26 06:49:54;;;;;;;11.57;5.60;;;;;;;25.60;63.72;99639.66;5107480;28;20028;-18
2023/06/26 06:52:20;;;;;;;8.10;5.22;;;;;;;25.58;62.50;99642.75;5107499;28;20051;-18
2023/06/26 06:54:58;;;;;;;12.32;6.13;;;;;;;25.64;63.15;99625.03;5107665;28;20041;-18
2023/06/26 06:57:26;;;;;;;10.93;6.00;;;;;;;26.11;62.42;99637.75;5107549;28;20492;-19
2023/06/26 06:59:52;;;;;;;8.48;5.03;;;;;;;26.15;59.72;99644.16;5107464;28;20035;-19
2023/06/26 07:02:17;;;;;;;12.65;6.95;;;;;;;25.98;60.14;99645.09;5107872;28;20024;-18
2023/06/26 07:04:43;;;;;;;9.85;6.30;;;;;;;26.23;59.10;99634.28;5106958;28;20467;-18
2023/06/26 07:07:09;;;;;;;10.80;4.45;;;;;;;26.31;58.50;99636.16;5107641;28;20028;-18
2023/06/26 07:09:35;;;;;;;10.13;4.82;;;;;;;26.39;60.51;99632.53;5107164;28;20028;-18
2023/06/26 07:12:00;;;;;;;8.80;4.32;;;;;;;26.44;59.67;99640.53;5107088;28;20024;-18
2023/06/26 07:14:26;;;;;;;8.88;4.63;;;;;;;26.46;56.29;99645.69;5107316;28;20084;-19
2023/06/26 07:16:51;;;;;;;6.22;3.70;;;;;;;26.38;56.77;99641.09;5107133;28;20023;-19
2023/06/26 07:19:17;;;;;;;10.70;4.45;;;;;;;26.19;57.81;99642.34;5106092;28;20030;-20
2023/06/26 07:21:44;;;;;;;10.23;5.05;;;;;;;26.26;58.96;99644.56;5106176;28;20420;-17
2023/06/26 07:24:09;;;;;;;9.65;4.47;;;;;;;26.35;57.46;99648.00;5106518;28;20023;-18
2023/06/26 07:26:35;;;;;;;8.43;4.70;;;;;;;26.40;58.03;99647.03;5106469;28;20120;-18
2023/06/26 07:29:00;;;;;;;29.00;14.20;;;;;;;26.44;57.32;99646.00;5106482;28;20023;-18
2023/06/26 07:31:26;;;;;;;11.32;5.30;;;;;;;26.40;56.83;99645.09;5106754;28;20080;-18
2023/06/26 07:33:51;;;;;;;11.00;5.38;;;;;;;26.57;57.93;99649.63;5106865;28;20018;-18
2023/06/26 07:36:17;;;;;;;11.45;6.75;;;;;;;27.05;57.34;99647.34;5106824;28;20039;-18
2023/06/26 07:38:42;;;;;;;9.23;5.28;;;;;;;27.20;53.02;99654.91;5107034;28;20634;-18
2023/06/26 07:41:07;;;;;;;13.60;6.57;;;;;;;27.30;58.73;99659.16;5106868;28;20460;-18
2023/06/26 07:43:33;;;;;;;13.10;7.80;;;;;;;27.24;53.34;99655.84;5106633;28;20058;-18
2023/06/26 07:45:58;;;;;;;10.48;7.55;;;;;;;27.44;54.06;99667.84;5106520;28;20036;-18
2023/06/26 07:48:25;;;;;;;7.00;3.85;;;;;;;27.57;49.87;99665.88;5106684;28;20059;-19
2023/06/26 07:50:50;;;;;;;11.18;5.25;;;;;;;27.51;52.10;99670.00;5106935;28;20043;-18
2023/06/26 07:53:16;;;;;;;9.05;4.57;;;;;;;27.56;54.12;99661.53;5106843;28;20058;-18
2023/06/26 07:55:41;;;;;;;7.93;3.85;;;;;;;27.70;50.58;99661.19;5106661;28;20020;-18
2023/06/26 07:58:07;;;;;;;7.00;3.60;;;;;;;27.94;50.30;99671.38;5106825;28;20026;-18
2023/06/26 08:00:32;;;;;;;9.20;4.63;;;;;;;27.98;54.22;99672.25;5106562;28;20039;-19
2023/06/26 08:02:58;;;;;;;9.88;4.50;;;;;;;28.14;51.14;99669.63;5106607;28;20028;-18
2023/06/26 08:05:23;;;;;;;7.70;4.28;;;;;;;28.23;50.28;99677.69;5106715;28;20139;-22
2023/06/26 08:07:49;;;;;;;7.60;4.72;;;;;;;28.22;51.70;99676.91;5106613;28;20032;-17
2023/06/26 08:10:14;;;;;;;8.48;4.50;;;;;;;28.12;52.16;99676.59;5106597;28;20039;-18
2023/06/26 08:12:42;;;;;;;8.95;5.25;;;;;;;28.22;52.96;99673.38;5106395;28;20027;-19
2023/06/26 08:15:08;;;;;;;11.02;5.35;;;;;;;28.09;52.37;99669.84;5106659;28;20024;-17
2023/06/26 08:17:34;;;;;;;9.45;4.88;;;;;;;28.60;51.96;99672.88;5109985;28;20024;-18
2023/06/26 08:20:00;;;;;;;9.55;5.10;;;;;;;28.62;49.99;99675.28;5110631;28;20054;-18
2023/06/26 08:22:25;;;;;;;7.88;4.45;;;;;;;28.42;50.75;99666.06;5110375;28;20055;-19
2023/06/26 08:24:51;;;;;;;8.32;4.85;;;;;;;28.21;53.59;99660.78;5110714;28;20034;-18
2023/06/26 08:27:16;;;;;;;9.27;5.03;;;;;;;28.48;50.65;99663.88;5110112;28;21154;-19
2023/06/26 08:29:41;;;;;;;7.18;4.38;;;;;;;28.70;50.46;99668.84;5109741;28;20083;-18
2023/06/26 08:32:07;;;;;;;7.20;4.68;;;;;;;28.42;51.73;99661.41;5110278;28;20122;-18
2023/06/26 08:34:32;;;;;;;8.52;4.00;;;;;;;28.44;49.73;99659.13;5110042;28;20525;-18
2023/06/26 08:36:58;;;;;;;7.53;4.15;;;;;;;28.36;50.35;99664.72;5110010;28;20031;-18
2023/06/26 08:39:24;;;;;;;7.75;4.32;;;;;;;28.71;50.06;99666.91;5110559;28;20031;-22
2023/06/26 08:41:49;;;;;;;7.53;4.32;;;;;;;28.84;48.46;99674.72;5109972;28;20032;-18
2023/06/26 08:44:15;;;;;;;7.15;4.40;;;;;;;29.03;50.63;99670.50;5109929;28;20115;-18
2023/06/26 08:46:41;;;;;;;7.40;3.90;;;;;;;29.36;49.07;99656.47;5109847;28;20027;-19
2023/06/26 08:49:25;;;;;;;8.02;3.72;;;;;;;28.96;47.45;99662.88;5109799;28;20027;-18
2023/06/26 08:52:01;;;;;;;6.53;4.32;;;;;;;28.77;49.82;99641.63;5110185;28;20502;-18
2023/06/26 08:54:34;;;;;;;9.00;4.00;;;;;;;28.50;48.46;99650.66;5109623;28;20026;-19
2023/06/26 08:57:00;;;;;;;6.38;3.50;;;;;;;28.57;48.66;99650.88;5109123;28;20114;-19
2023/06/26 08:59:27;;;;;;;5.95;3.58;;;;;;;28.73;48.34;99664.59;5108896;28;20475;-20
2023/06/26 09:01:52;;;;;;;5.95;3.22;;;;;;;28.78;46.59;99659.66;5108974;28;20080;-19
2023/06/26 09:04:18;;;;;;;6.93;3.30;;;;;;;28.74;46.72;99647.78;5108610;28;20031;-18
2023/06/26 09:06:44;;;;;;;5.13;3.42;;;;;;;29.17;46.04;99643.44;5108604;28;20036;-19
2023/06/26 09:09:10;;;;;;;5.93;3.17;;;;;;;29.40;45.36;99651.03;5108440;28;20514;-18
2023/06/26 09:11:35;;;;;;;6.00;3.08;;;;;;;29.90;45.81;99645.94;5108628;28;20019;-18
2023/06/26 09:14:04;;;;;;;8.25;3.90;;;;;;;29.92;45.17;99632.63;5108301;28;20038;-19
2023/06/26 09:16:30;;;;;;;7.53;3.40;;;;;;;29.76;47.25;99635.41;5108391;28;20027;-18
2023/06/26 09:18:56;;;;;;;8.18;3.22;;;;;;;29.75;46.40;99639.31;5108387;28;20035;-17
2023/06/26 09:21:24;;;;;;;4.82;2.83;;;;;;;29.55;44.50;99641.19;5108185;28;20439;-19
2023/06/26 09:23:50;;;;;;;18.15;11.07;;;;;;;29.56;45.95;99646.31;5108661;28;20031;-18
2023/06/26 09:26:16;;;;;;;7.15;4.22;;;;;;;29.44;45.72;99627.19;5107813;28;20031;-19
2023/06/26 09:28:43;;;;;;;16.17;9.45;;;;;;;29.59;48.90;99623.63;5108146;28;20103;-19
2023/06/26 09:31:10;;;;;;;5.22;3.17;;;;;;;29.25;46.68;99628.72;5107943;28;20031;-19
2023/06/26 09:33:37;;;;;;;12.63;7.63;;;;;;;29.78;46.41;99633.09;5108384;28;20036;-19
2023/06/26 09:36:18;;;;;;;;;;;;;;;30.16;44.94;99632.34;5108342;28;20040;-19
2023/06/26 09:38:43;;;;;;;7.85;3.50;;;;;;;30.09;44.91;99634.16;5108163;28;19907;-20
2023/06/26 09:41:09;;;;;;;6.05;3.05;;;;;;;30.05;46.04;99637.59;5107505;28;20034;-19
2023/06/26 09:43:34;;;;;;;4.05;2.60;;;;;;;30.33;46.42;99628.41;5107987;28;20051;-19
2023/06/26 09:46:00;;;;;;;6.13;3.35;;;;;;;30.12;46.77;99630.66;5107657;28;20042;-19
2023/06/26 09:48:27;;;;;;;4.75;3.00;;;;;;;30.11;45.16;99623.59;5107861;28;20027;-20
2023/06/26 09:50:53;;;;;;;7.22;3.50;;;;;;;30.54;43.45;99625.25;5107998;28;20133;-18
2023/06/26 09:53:20;;;;;;;6.18;3.60;;;;;;;30.82;42.57;99624.97;5107528;28;20081;-20
2023/06/26 09:55:46;;;;;;;6.30;3.47;;;;;;;31.12;42.49;99629.84;5107513;28;20063;-19
2023/06/26 09:58:15;;;;;;;5.03;2.90;;;;;;;30.96;41.88;99640.19;5107539;28;20704;-18
2023/06/26 10:00:44;;;;;;;4.82;3.00;;;;;;;30.92;42.58;99634.63;5107555;28;20111;-18
2023/06/26 10:03:12;;;;;;;6.82;3.10;;;;;;;31.09;42.13;99632.53;5107066;28;20425;-19
2023/06/26 10:05:41;;;;;;;5.65;2.90;;;;;;;31.39;41.16;99635.41;5107351;28;20096;-19
2023/06/26 10:08:07;;;;;;;7.30;3.63;;;;;;;30.98;43.42;99637.88;5107278;28;20019;-19
2023/06/26 10:10:37;;;;;;;6.17;3.37;;;;;;;30.50;44.57;99623.59;5107406;28;20028;-19
2023/06/26 10:13:19;;;;;;;12.90;6.88;;;;;;;31.22;44.49;99607.19;5107158;28;20838;-19
2023/06/26 10:15:46;;;;;;;6.43;3.72;;;;;;;31.10;42.19;99615.66;5107385;28;20032;-18
2023/06/26 10:18:15;;;;;;;7.20;3.40;;;;;;;30.77;42.42;99607.97;5107096;28;20037;-19
2023/06/26 10:20:44;;;;;;;8.63;3.60;;;;;;;30.86;43.36;99599.50;5106976;28;20138;-19
2023/06/26 10:23:10;;;;;;;6.18;3.00;;;;;;;31.34;41.39;99610.91;5106962;28;20032;-19
2023/06/26 10:25:40;;;;;;;5.43;3.30;;;;;;;31.31;40.15;99612.44;5107188;28;20129;-19
2023/06/26 10:28:09;;;;;;;5.38;3.42;;;;;;;31.05;39.84;99610.44;5106691;28;20028;-19
2023/06/26 10:30:37;;;;;;;6.13;3.25;;;;;;;31.04;40.95;99595.09;5107074;28;20042;-19
2023/06/26 10:33:03;;;;;;;6.40;3.60;;;;;;;31.10;40.47;99612.91;5106675;28;20020;-21
2023/06/26 10:35:30;;;;;;;6.90;3.17;;;;;;;31.71;39.04;99590.97;5106724;28;20735;-19
2023/06/26 10:38:06;;;;;;;5.80;2.80;;;;;;;31.62;40.03;99605.84;5106500;28;20023;-22
2023/06/26 10:40:45;;;;;;;7.38;3.35;;;;;;;31.25;40.26;99605.66;5106522;28;20084;-18
2023/06/26 10:43:13;;;;;;;6.32;3.63;;;;;;;31.18;39.84;99603.59;5106714;28;20039;-19
2023/06/26 10:45:46;;;;;;;7.57;3.75;;;;;;;31.33;42.13;99593.59;5106367;28;20084;-18
2023/06/26 10:48:14;;;;;;;7.85;3.92;;;;;;;31.66;40.92;99594.06;5106554;28;20032;-20
2023/06/26 10:50:40;;;;;;;7.97;3.88;;;;;;;31.61;40.46;99582.22;5106469;28;20494;-19
2023/06/26 10:53:36;;;;;;;5.80;3.20;;;;;;;31.01;42.69;99574.59;5106651;28;20027;-19
2023/06/26 10:56:04;;;;;;;5.65;2.72;;;;;;;30.46;41.74;99585.00;5106317;28;20413;-19
2023/06/26 10:58:40;;;;;;;4.85;2.50;;;;;;;30.83;42.75;99588.03;5106564;28;20028;-19
2023/06/26 11:01:11;;;;;;;10.95;3.30;;;;;;;31.14;42.03;99579.88;5106605;28;20031;-18
2023/06/26 11:03:41;;;;;;;6.05;3.35;;;;;;;30.89;41.91;99579.50;5106550;28;20028;-19
2023/06/26 11:06:11;;;;;;;9.40;3.88;;;;;;;30.99;41.80;99584.38;5106556;28;20019;-22
2023/06/26 11:08:53;;;;;;;7.40;4.18;;;;;;;30.69;42.10;99590.56;5106495;28;20028;-19
2023/06/26 11:11:19;;;;;;;6.13;3.58;;;;;;;30.86;41.55;99585.72;5106214;28;20027;-19
2023/06/26 11:13:46;;;;;;;6.22;3.00;;;;;;;30.46;42.34;99584.22;5106007;28;20032;-21
2023/06/26 11:16:12;;;;;;;6.95;4.00;;;;;;;30.42;42.45;99579.47;5106172;28;20028;-18
2023/06/26 11:18:38;;;;;;;6.27;2.70;;;;;;;30.00;43.14;99587.63;5106282;28;20023;-20
2023/06/26 11:21:08;;;;;;;7.43;2.70;;;;;;;29.93;43.03;99590.22;5106005;28;20454;-18
2023/06/26 11:23:36;;;;;;;5.97;2.80;;;;;;;29.95;43.06;99610.69;5105894;28;20035;-19
2023/06/26 11:26:18;;;;;;;7.75;3.92;;;;;;;29.79;46.16;99609.94;5106050;28;20130;-18
2023/06/26 11:28:57;;;;;;;14.25;3.65;;;;;;;29.22;50.88;99612.97;5105899;28;20024;-19